Time;durP1;ratioP1;P1;durP2;ratioP2;P2;SDS_P1;SDS_P2;PMS_P1;PMS_P2;Temp;Humidity;BMP_temperature;BMP_pressure;BME280_temperature;BME280_humidity;BME280_pressure;Samples;Min_cycle;Max_cycle;Signal;HPM_P1;HPM_P2
2023/10/12 00:01:25;;;;;;;7.53;4.80;;;13.60;92.90;;;13.73;58.26;95825.16;5003376;28;20470;-61
2023/10/12 00:03:59;;;;;;;8.63;4.83;;;13.60;93.00;;;13.70;58.17;95827.25;5002364;28;20457;-62
2023/10/12 00:06:30;;;;;;;4.60;3.97;;;13.50;92.80;;;13.65;58.47;95832.94;5003037;28;20477;-62
2023/10/12 00:09:03;;;;;;;16.43;4.40;;;13.50;92.70;;;13.58;58.59;95822.06;5001636;28;20452;-62
2023/10/12 00:11:37;;;;;;;7.50;4.60;;;13.40;92.80;;;13.55;58.18;95824.13;5004862;28;20525;-62
2023/10/12 00:14:06;;;;;;;8.23;5.93;;;13.30;92.80;;;13.50;58.56;95816.59;5001211;28;20575;-62
2023/10/12 00:16:36;;;;;;;6.30;4.40;;;13.30;92.90;;;13.49;58.52;95814.94;5003093;28;20703;-61
2023/10/12 00:19:03;;;;;;;17.10;5.30;;;13.30;93.10;;;13.45;58.63;95817.00;5001139;28;20450;-62
2023/10/12 00:21:35;;;;;;;7.70;4.57;;;13.30;93.10;;;13.43;58.59;95808.41;5000166;28;20565;-63
2023/10/12 00:24:06;;;;;;;7.30;5.37;;;13.20;93.10;;;13.41;58.52;95809.50;5002887;28;20772;-63
2023/10/12 00:26:33;;;;;;;11.83;5.27;;;13.20;93.20;;;13.38;58.86;95801.81;5002287;28;20497;-61
2023/10/12 00:29:02;;;;;;;9.73;5.07;;;13.20;93.30;;;13.36;58.65;95798.50;5002864;28;20454;-61
2023/10/12 00:31:30;;;;;;;7.00;5.03;;;13.10;93.60;;;13.33;59.19;95804.88;5001319;28;20605;-62
2023/10/12 00:34:02;;;;;;;11.90;4.27;;;13.10;93.30;;;13.33;58.88;95801.38;5002021;28;20974;-61
2023/10/12 00:36:30;;;;;;;6.27;4.90;;;13.10;93.30;;;13.33;58.98;95799.59;5002354;28;20601;-61
2023/10/12 00:38:59;;;;;;;10.07;4.77;;;13.10;93.50;;;13.32;58.81;95802.31;5003806;28;20822;-61
2023/10/12 00:41:29;;;;;;;18.33;4.67;;;13.10;93.60;;;13.32;59.13;95797.03;5001668;28;20477;-63
2023/10/12 00:44:08;;;;;;;16.20;6.70;;;13.10;93.60;;;13.30;59.13;95793.72;5002457;28;20558;-62
2023/10/12 00:46:48;;;;;;;27.87;5.27;;;13.10;93.60;;;13.26;59.00;95793.13;5000097;28;20511;-60
2023/10/12 00:49:20;;;;;;;8.70;6.47;;;13.00;93.30;;;13.25;58.68;95791.47;5004477;28;20449;-61
2023/10/12 00:51:52;;;;;;;15.17;6.00;;;13.00;93.20;;;13.21;58.86;95785.59;5001167;28;20581;-61
2023/10/12 00:54:27;;;;;;;14.00;5.97;;;13.00;93.20;;;13.19;58.69;95792.81;5002330;28;20477;-59
2023/10/12 00:56:59;;;;;;;7.33;5.20;;;13.00;93.20;;;13.13;58.91;95782.78;5003176;28;20469;-61
2023/10/12 00:59:27;;;;;;;10.33;5.50;;;12.90;93.20;;;13.08;58.65;95782.38;4999516;28;20455;-62
2023/10/12 01:01:55;;;;;;;12.33;5.60;;;12.90;93.20;;;13.03;58.63;95781.94;5002904;28;20997;-61
2023/10/12 01:04:24;;;;;;;12.30;5.30;;;12.90;93.20;;;12.98;58.46;95784.13;4998970;28;20541;-62
2023/10/12 01:06:51;;;;;;;8.53;5.10;;;12.80;93.10;;;12.91;58.89;95779.34;5003069;28;20474;-60
2023/10/12 01:09:21;;;;;;;8.83;5.60;;;12.80;93.10;;;12.86;58.90;95772.81;5002756;28;20946;-61
2023/10/12 01:11:58;;;;;;;5.20;4.80;;;12.70;93.10;;;12.83;58.93;95781.84;4999344;28;20491;-61
2023/10/12 01:14:28;;;;;;;6.13;5.43;;;12.70;93.40;;;12.78;59.12;95778.75;5000774;28;20981;-62
2023/10/12 01:16:58;;;;;;;10.40;5.37;;;12.60;93.40;;;12.74;59.11;95772.88;5001543;28;20963;-60
2023/10/12 01:19:31;;;;;;;4.93;4.37;;;12.60;93.40;;;12.70;58.97;95775.91;5000595;28;20454;-62
2023/10/12 01:22:11;;;;;;;4.83;4.10;;;12.60;93.60;;;12.66;58.78;95780.63;5000805;28;20488;-62
2023/10/12 01:24:44;;;;;;;6.10;5.20;;;12.50;93.60;;;12.61;59.07;95782.84;4999492;28;20446;-62
2023/10/12 01:27:14;;;;;;;8.13;4.77;;;12.50;93.70;;;12.58;59.20;95776.94;4999753;28;20829;-61
2023/10/12 01:29:42;;;;;;;6.17;5.00;;;12.40;93.80;;;12.55;59.43;95775.44;5001833;28;20453;-61
2023/10/12 01:32:22;;;;;;;10.27;5.30;;;12.40;93.90;;;12.52;59.59;95778.31;4999416;28;20663;-62
2023/10/12 01:34:52;;;;;;;8.90;4.50;;;12.30;93.80;;;12.49;59.42;95779.41;5000921;28;20453;-63
2023/10/12 01:37:25;;;;;;;7.03;5.03;;;12.30;94.00;;;12.47;59.58;95781.34;5002303;28;20553;-62
2023/10/12 01:40:10;;;;;;;6.83;4.60;;;12.30;94.10;;;12.44;59.79;95776.34;4999486;28;20517;-62
2023/10/12 01:42:49;;;;;;;5.53;5.00;;;12.30;94.20;;;12.41;59.38;95771.31;5007579;28;20508;-62
2023/10/12 01:45:25;;;;;;;13.33;4.97;;;12.30;94.30;;;12.38;59.55;95769.75;5004263;28;21048;-62
2023/10/12 01:47:55;;;;;;;10.13;5.47;;;12.20;94.10;;;12.34;60.02;95770.97;4999818;28;20544;-62
2023/10/12 01:50:24;;;;;;;5.77;4.90;;;12.20;94.50;;;12.32;59.83;95777.34;4999662;28;20809;-63
2023/10/12 01:52:56;;;;;;;9.30;4.80;;;12.20;94.40;;;12.29;59.80;95783.72;5003151;28;20886;-62
2023/10/12 01:55:29;;;;;;;13.60;5.53;;;12.10;94.50;;;12.28;59.83;95770.66;5000454;28;20520;-63
2023/10/12 01:57:56;;;;;;;6.23;5.20;;;12.10;94.60;;;12.24;60.15;95774.50;5001473;28;20442;-62
2023/10/12 02:00:27;;;;;;;15.43;5.70;;;12.10;94.70;;;12.22;60.31;95773.81;5000640;28;20465;-62
2023/10/12 02:03:12;;;;;;;11.50;5.80;;;12.10;94.80;;;12.20;60.17;95784.47;5000817;28;20512;-61
2023/10/12 02:05:46;;;;;;;5.93;5.40;;;12.00;94.70;;;12.17;60.19;95785.56;5002235;28;20470;-62
2023/10/12 02:08:16;;;;;;;6.80;5.37;;;12.00;94.80;;;12.16;60.67;95783.91;4999310;28;20450;-61
2023/10/12 02:10:55;;;;;;;9.93;6.33;;;12.00;95.00;;;12.14;60.36;95780.53;5001430;28;20462;-62
2023/10/12 02:13:23;;;;;;;14.60;5.60;;;12.00;95.00;;;12.13;60.67;95789.44;5000654;28;20520;-62
2023/10/12 02:15:50;;;;;;;8.00;5.90;;;12.00;95.20;;;12.12;60.42;95777.19;4999730;28;20532;-62
2023/10/12 02:18:18;;;;;;;8.50;6.20;;;12.00;95.10;;;12.11;60.62;95783.44;5000322;28;20470;-62
2023/10/12 02:21:06;;;;;;;9.70;5.60;;;12.00;95.20;;;12.10;60.63;95779.13;4999921;28;20504;-61
2023/10/12 02:23:39;;;;;;;12.43;6.13;;;12.00;95.40;;;12.09;60.85;95777.47;5000951;28;20453;-60
2023/10/12 02:26:28;;;;;;;9.60;6.07;;;12.00;95.40;;;12.10;60.72;95784.41;4998877;28;20475;-62
2023/10/12 02:29:02;;;;;;;10.97;5.73;;;11.90;95.40;;;12.09;61.08;95785.38;4998732;28;21026;-61
2023/10/12 02:31:29;;;;;;;8.83;5.73;;;11.90;95.40;;;12.08;60.76;95783.69;5000376;28;20496;-62
2023/10/12 02:33:57;;;;;;;12.40;5.37;;;11.90;95.40;;;12.08;60.84;95782.84;4998539;28;20523;-62
2023/10/12 02:36:26;;;;;;;9.27;5.37;;;11.90;95.40;;;12.06;61.01;95787.44;4998554;28;20474;-63
2023/10/12 02:38:58;;;;;;;8.43;5.50;;;11.90;95.40;;;12.03;60.98;95783.22;5003759;28;20865;-61
2023/10/12 02:41:26;;;;;;;13.60;6.03;;;11.90;95.40;;;12.00;61.35;95780.84;4999655;28;20479;-62
2023/10/12 02:44:11;;;;;;;10.13;5.73;;;11.90;95.70;;;11.99;61.20;95780.03;5000423;28;21002;-62
2023/10/12 02:46:48;;;;;;;12.50;4.97;;;11.80;95.80;;;11.98;61.26;95773.06;5001879;28;20505;-61
2023/10/12 02:49:16;;;;;;;8.30;6.10;;;11.80;95.80;;;11.98;61.44;95785.44;5000831;28;20449;-62
2023/10/12 02:51:45;;;;;;;9.10;6.20;;;11.80;96.00;;;11.97;61.30;95775.81;4998547;28;20521;-63
2023/10/12 02:54:15;;;;;;;9.90;6.37;;;11.80;95.90;;;11.97;61.29;95774.03;5000747;28;20457;-62
2023/10/12 02:56:43;;;;;;;5.90;5.40;;;11.80;96.10;;;11.97;61.55;95770.56;4999077;28;20523;-62
2023/10/12 02:59:13;;;;;;;6.83;5.93;;;11.80;96.10;;;11.97;61.52;95781.94;5000988;28;20481;-62
2023/10/12 03:01:40;;;;;;;9.63;6.47;;;11.80;96.00;;;11.93;61.38;95771.75;4998866;28;20587;-62
2023/10/12 03:04:10;;;;;;;14.13;6.30;;;11.80;96.10;;;11.92;61.84;95773.56;5000125;28;20453;-62
2023/10/12 03:06:53;;;;;;;9.23;5.63;;;11.80;96.30;;;11.92;61.93;95770.06;4999279;28;20551;-62
2023/10/12 03:09:36;;;;;;;21.47;6.97;;;11.80;96.20;;;11.90;61.55;95770.19;5000010;28;20553;-63
2023/10/12 03:12:04;;;;;;;15.40;6.20;;;11.80;96.30;;;11.89;61.77;95771.16;5001276;28;20563;-62
2023/10/12 03:14:35;;;;;;;13.40;6.10;;;11.70;96.40;;;11.89;61.77;95767.69;4998713;28;20486;-62
2023/10/12 03:17:06;;;;;;;16.20;5.60;;;11.70;96.30;;;11.88;61.86;95769.47;4999649;28;20469;-64
2023/10/12 03:19:38;;;;;;;8.37;6.00;;;11.70;96.50;;;11.88;62.06;95771.28;4999887;28;20450;-62
2023/10/12 03:22:19;;;;;;;10.87;6.03;;;11.70;96.60;;;11.89;62.01;95765.06;4999079;28;20535;-63
2023/10/12 03:24:51;;;;;;;10.37;5.60;;;11.70;96.60;;;11.90;61.82;95771.97;5000598;28;20465;-59
2023/10/12 03:27:19;;;;;;;10.40;6.43;;;11.70;96.60;;;11.90;62.31;95766.72;5000329;28;20477;-61
2023/10/12 03:29:55;;;;;;;9.03;6.57;;;11.70;96.70;;;11.91;62.06;95765.75;4998337;28;20454;-61
2023/10/12 03:32:25;;;;;;;8.40;5.50;;;11.70;96.60;;;11.92;62.14;95770.06;4999536;28;20516;-63
2023/10/12 03:34:56;;;;;;;8.37;6.40;;;11.80;96.70;;;11.91;62.20;95766.59;4999179;28;20979;-61
2023/10/12 03:42:56;;;;;;;6.80;5.10;;;11.80;96.80;;;11.90;62.01;95777.25;5001317;28;21010;-62
2023/10/12 03:45:33;;;;;;;12.40;6.40;;;11.80;96.80;;;11.90;62.32;95772.84;5003930;28;20544;-61
2023/10/12 03:48:24;;;;;;;20.43;6.80;;;11.80;96.80;;;11.90;62.28;95778.09;5002993;28;20442;-61
2023/10/12 03:50:59;;;;;;;10.50;7.10;;;11.70;96.80;;;11.89;61.99;95776.44;5001530;28;20570;-60
2023/10/12 03:53:35;;;;;;;10.07;6.40;;;11.70;96.80;;;11.89;62.06;95767.69;5004398;28;20480;-62
2023/10/12 03:56:07;;;;;;;17.27;7.00;;;11.70;96.90;;;11.89;62.47;95776.44;5002289;28;20466;-62
2023/10/12 03:58:39;;;;;;;12.03;6.27;;;11.70;97.00;;;11.87;62.02;95772.22;5002932;28;20577;-62
2023/10/12 04:01:10;;;;;;;10.53;6.60;;;11.70;96.70;;;11.84;62.16;95775.97;5003483;28;20474;-62
2023/10/12 04:03:40;;;;;;;15.47;6.97;;;11.70;96.80;;;11.81;62.07;95771.78;5001594;28;20453;-61
2023/10/12 04:06:15;;;;;;;19.60;5.83;;;11.70;96.60;;;11.77;62.18;95775.66;5003888;28;20508;-61
2023/10/12 04:08:51;;;;;;;13.70;6.00;;;11.60;96.70;;;11.74;62.07;95778.53;5000957;28;20443;-62
2023/10/12 04:14:43;;;;;;;10.87;6.10;;;11.60;96.80;;;11.68;62.20;95779.03;5002836;28;20531;-61
2023/10/12 04:17:39;;;;;;;15.57;6.40;;;11.50;96.80;;;11.63;62.33;95771.50;5003993;28;20552;-62
2023/10/12 04:20:22;;;;;;;8.93;6.40;;;11.50;96.90;;;11.62;62.32;95780.34;5004089;28;20541;-60
2023/10/12 04:25:46;;;;;;;12.33;6.90;;;11.50;97.00;;;11.57;62.40;95771.13;5000377;28;20501;-62
2023/10/12 04:31:21;;;;;;;13.30;6.93;;;11.40;97.00;;;11.53;62.52;95775.00;5003471;28;20792;-62
2023/10/12 04:34:04;;;;;;;12.33;6.60;;;11.40;97.10;;;11.52;62.51;95773.31;5003112;28;20849;-61
2023/10/12 04:36:38;;;;;;;9.03;5.60;;;11.40;97.20;;;11.51;62.39;95779.53;5001585;28;20564;-63
2023/10/12 04:39:24;;;;;;;19.93;6.43;;;11.40;97.30;;;11.49;62.72;95774.38;5002144;28;20442;-63
2023/10/12 04:42:04;;;;;;;7.03;6.20;;;11.40;97.30;;;11.49;62.70;95771.75;5003736;28;20465;-63
2023/10/12 04:44:44;;;;;;;10.70;6.87;;;11.30;97.20;;;11.48;62.74;95768.28;5000526;28;20541;-62
2023/10/12 04:47:12;;;;;;;8.07;6.57;;;11.40;97.30;;;11.48;62.63;95773.56;4999347;28;20594;-62
2023/10/12 04:49:57;;;;;;;15.20;6.00;;;11.30;97.20;;;11.50;62.78;95764.69;5001513;28;20446;-63
2023/10/12 04:52:32;;;;;;;14.93;6.77;;;11.40;97.40;;;11.49;62.80;95771.75;5000349;28;20533;-63
2023/10/12 04:55:06;;;;;;;13.90;6.20;;;11.40;97.80;;;11.52;62.83;95773.31;5000737;28;20441;-62
2023/10/12 04:57:34;;;;;;;9.53;6.90;;;11.40;97.40;;;11.53;62.51;95780.25;5002750;28;21073;-62
2023/10/12 05:00:17;;;;;;;18.13;6.57;;;11.40;97.40;;;11.54;62.62;95774.88;5000130;28;20979;-63
2023/10/12 05:02:56;;;;;;;16.70;7.53;;;11.40;97.40;;;11.56;62.88;95778.22;5001931;28;21012;-63
2023/10/12 05:08:21;;;;;;;16.03;7.50;;;11.40;97.40;;;11.62;62.59;95774.25;5001526;28;20481;-63
2023/10/12 05:10:49;;;;;;;17.03;7.93;;;11.50;97.50;;;11.64;62.90;95769.69;5000961;28;20492;-63
2023/10/12 05:13:23;;;;;;;13.37;6.70;;;11.50;97.50;;;11.67;62.45;95777.34;5001838;28;20521;-62
2023/10/12 05:16:04;;;;;;;16.20;7.70;;;11.50;97.30;;;11.69;62.53;95780.69;5000492;28;20474;-62
2023/10/12 05:18:32;;;;;;;15.07;6.80;;;11.50;97.30;;;11.72;62.41;95777.78;5001837;28;20907;-62
2023/10/12 05:21:00;;;;;;;20.33;5.70;;;11.50;97.30;;;11.75;62.27;95785.44;5000154;28;20482;-61
2023/10/12 05:23:29;;;;;;;15.60;6.80;;;11.60;97.30;;;11.78;62.33;95790.47;5002607;28;20446;-63
2023/10/12 05:26:09;;;;;;;20.90;6.40;;;11.60;97.30;;;11.82;62.43;95786.63;5000587;28;20982;-62
2023/10/12 05:28:37;;;;;;;11.60;6.40;;;11.70;97.20;;;11.87;62.43;95794.19;5002770;28;20856;-64
2023/10/12 05:31:13;;;;;;;14.23;6.30;;;11.70;97.30;;;11.91;62.18;95806.13;5001914;28;20478;-63
2023/10/12 05:33:43;;;;;;;9.40;6.00;;;11.70;97.40;;;11.94;62.14;95798.00;4999580;28;20862;-63
2023/10/12 05:36:12;;;;;;;9.50;6.10;;;11.80;97.10;;;12.01;62.25;95803.63;5002856;28;20565;-63
2023/10/12 05:38:40;;;;;;;9.40;6.00;;;11.80;96.90;;;12.07;62.02;95808.41;4999183;28;20536;-62
2023/10/12 05:41:09;;;;;;;15.30;7.27;;;11.90;96.90;;;12.20;61.52;95808.22;4999167;28;20478;-61
2023/10/12 05:43:39;;;;;;;26.27;6.73;;;12.00;96.80;;;12.33;61.28;95811.53;5002812;28;20462;-63
2023/10/12 05:46:13;;;;;;;13.63;6.10;;;12.20;96.60;;;12.45;61.06;95817.56;4998942;28;20471;-63
2023/10/12 05:48:45;;;;;;;9.73;5.73;;;12.30;96.50;;;12.59;61.10;95808.50;5001568;28;20963;-63
2023/10/12 05:51:14;;;;;;;14.83;7.27;;;12.40;96.30;;;12.79;60.76;95809.44;5000234;28;20474;-62
2023/10/12 05:53:41;;;;;;;10.20;6.60;;;12.50;96.20;;;13.01;60.38;95810.25;4998702;28;20545;-65
2023/10/12 05:56:09;;;;;;;12.53;7.07;;;12.70;95.80;;;13.24;60.02;95810.91;5003354;28;20481;-62
2023/10/12 05:58:38;;;;;;;11.80;6.50;;;12.90;95.90;;;13.50;59.53;95810.50;4999768;28;20830;-63
2023/10/12 06:01:31;;;;;;;10.70;6.67;;;13.20;95.60;;;13.76;59.11;95816.97;5000253;28;21006;-62
2023/10/12 06:04:00;;;;;;;10.73;5.77;;;13.40;95.30;;;14.08;58.46;95812.41;5001197;28;20449;-62
2023/10/12 06:06:31;;;;;;;22.63;6.53;;;13.80;94.60;;;14.32;57.65;95812.81;4999161;28;20471;-63
2023/10/12 06:08:59;;;;;;;12.70;6.23;;;13.90;94.10;;;14.55;57.32;95812.56;5000699;28;20446;-63
2023/10/12 06:11:26;;;;;;;14.80;6.03;;;14.20;93.60;;;14.76;56.25;95799.16;4999832;28;20489;-62
2023/10/12 06:13:53;;;;;;;7.63;5.40;;;14.40;92.80;;;14.98;56.04;95805.94;5000788;28;20489;-63
2023/10/12 06:16:21;;;;;;;10.10;5.63;;;14.60;92.50;;;15.27;55.93;95812.94;4999269;28;20514;-62
2023/10/12 06:18:49;;;;;;;11.63;5.57;;;14.90;92.70;;;15.61;55.17;95804.41;5001176;28;20453;-64
2023/10/12 06:21:18;;;;;;;11.83;5.17;;;15.20;91.90;;;15.99;54.63;95802.56;4998680;28;20557;-63
2023/10/12 06:23:48;;;;;;;6.17;4.90;;;15.50;91.40;;;16.38;53.73;95802.25;5000605;28;20512;-63
2023/10/12 06:26:28;;;;;;;12.10;5.90;;;15.90;90.80;;;16.83;53.30;95805.75;4999133;28;20529;-64
2023/10/12 06:28:59;;;;;;;12.20;5.53;;;16.30;90.20;;;17.28;52.52;95804.72;4998838;28;20450;-62
2023/10/12 06:31:29;;;;;;;10.17;5.37;;;16.80;88.70;;;17.67;51.50;95804.22;4998377;28;20545;-63
2023/10/12 06:33:57;;;;;;;10.27;5.80;;;17.10;87.30;;;18.08;51.38;95808.88;5001348;28;21005;-63
2023/10/12 06:36:38;;;;;;;15.97;6.30;;;17.60;85.40;;;18.47;50.60;95802.94;4997726;28;20482;-63
2023/10/12 06:42:08;;;;;;;22.03;6.67;;;18.40;82.20;;;19.37;48.90;95804.69;5000826;28;20461;-63
2023/10/12 06:44:34;;;;;;;11.70;6.07;;;18.80;80.70;;;19.87;48.08;95805.34;4999263;28;20537;-63
2023/10/12 06:47:28;;;;;;;20.93;7.10;;;19.30;79.10;;;20.28;47.34;95799.78;5000513;28;20465;-63
2023/10/12 06:49:51;;;;;;;13.87;6.60;;;19.70;77.40;;;20.76;46.89;95808.47;5001615;28;20905;-64
2023/10/12 06:52:22;;;;;;;28.33;7.03;;;20.20;75.90;;;21.24;46.21;95800.16;4998025;28;20558;-63
2023/10/12 06:54:54;;;;;;;30.60;6.80;;;20.60;74.80;;;21.70;45.76;95798.31;4997910;28;20453;-62
2023/10/12 06:57:36;;;;;;;11.97;6.80;;;21.10;74.40;;;22.15;45.47;95809.78;5000376;28;20548;-63
2023/10/12 07:00:30;;;;;;;11.00;6.03;;;21.50;72.60;;;22.67;44.58;95810.56;5000188;28;20451;-62
2023/10/12 07:03:00;;;;;;;31.17;7.93;;;22.00;71.60;;;23.21;44.19;95801.94;5000054;28;20462;-64
2023/10/12 07:05:33;;;;;;;36.30;7.40;;;22.60;70.00;;;23.66;43.46;95801.59;4998682;28;20446;-63
2023/10/12 07:08:07;;;;;;;18.63;6.90;;;23.10;68.50;;;24.11;41.89;95810.09;5000432;28;20445;-64
2023/10/12 07:10:34;;;;;;;21.50;6.80;;;23.50;66.50;;;24.52;41.18;95803.78;4998029;28;20458;-63
2023/10/12 07:13:03;;;;;;;20.07;7.00;;;24.00;64.90;;;24.84;41.01;95812.13;5008087;28;20757;-64
2023/10/12 07:15:40;;;;;;;14.13;7.00;;;24.50;63.20;;;25.15;40.16;95807.97;5002458;28;20540;-63
2023/10/12 07:18:14;;;;;;;8.97;6.73;;;24.80;62.00;;;25.36;39.34;95806.97;5002480;28;20449;-63
2023/10/12 07:20:41;;;;;;;20.50;6.37;;;25.20;59.90;;;25.65;38.93;95801.31;5003527;28;20448;-63
2023/10/12 07:23:20;;;;;;;20.07;6.10;;;25.50;59.30;;;26.00;38.50;95809.09;5005519;28;20545;-63
2023/10/12 07:25:51;;;;;;;21.87;5.80;;;25.90;58.60;;;26.36;37.80;95805.81;5002367;28;20990;-64
2023/10/12 07:28:25;;;;;;;15.63;6.57;;;26.30;57.30;;;26.68;36.86;95800.47;5004826;28;20441;-64
2023/10/12 07:31:23;;;;;;;21.30;8.30;;;26.60;56.40;;;26.97;36.50;95809.81;5001464;28;20471;-61
2023/10/12 07:33:59;;;;;;;11.17;5.60;;;26.90;55.50;;;27.29;36.06;95800.81;5001359;28;20515;-64
2023/10/12 07:36:44;;;;;;;19.00;6.20;;;27.30;54.50;;;27.49;35.76;95806.84;5003487;28;20472;-63
2023/10/12 07:39:19;;;;;;;16.73;6.43;;;27.50;53.70;;;27.71;34.98;95803.72;5004503;28;21143;-62
2023/10/12 07:41:55;;;;;;;31.90;6.77;;;27.80;53.00;;;27.84;34.97;95797.34;5004521;28;20484;-64
2023/10/12 07:44:24;;;;;;;16.77;6.73;;;27.90;52.30;;;27.81;34.70;95797.78;5002634;28;20453;-62
2023/10/12 07:46:51;;;;;;;34.70;8.10;;;28.00;51.60;;;27.78;33.83;95796.38;5002602;28;20564;-64
2023/10/12 07:49:38;;;;;;;6.00;5.37;;;28.00;51.30;;;27.81;34.25;95800.50;5002014;28;20454;-63
2023/10/12 07:52:21;;;;;;;34.07;7.30;;;27.90;51.30;;;27.94;34.43;95796.81;5000575;28;20473;-62
2023/10/12 07:54:59;;;;;;;23.30;7.17;;;27.80;51.30;;;28.10;34.06;95790.81;5002348;28;20487;-63
2023/10/12 07:57:30;;;;;;;14.70;7.23;;;27.90;50.80;;;28.18;33.35;95793.22;5001245;28;20480;-62
2023/10/12 08:00:29;;;;;;;14.03;7.70;;;27.90;49.50;;;28.14;33.12;95794.72;5003986;28;20945;-63
2023/10/12 08:05:46;;;;;;;12.27;6.20;;;27.80;49.60;;;28.11;33.09;95787.06;4990233;28;20469;-62
2023/10/12 08:08:20;;;;;;;11.20;6.30;;;27.80;49.50;;;28.23;33.07;95787.13;5001587;28;20445;-63
2023/10/12 08:11:00;;;;;;;9.80;6.60;;;27.80;49.40;;;28.40;32.78;95779.19;5003618;28;20488;-63
2023/10/12 08:13:32;;;;;;;18.17;7.33;;;27.90;49.20;;;28.55;30.75;95779.59;5000647;28;20482;-64
2023/10/12 08:16:03;;;;;;;14.53;6.20;;;28.00;46.50;;;28.52;32.21;95776.50;5001963;28;20458;-63
2023/10/12 08:21:24;;;;;;;29.47;6.43;;;28.00;47.70;;;28.36;32.04;95767.16;4999877;28;20516;-62
2023/10/12 08:23:57;;;;;;;9.43;7.00;;;27.90;48.10;;;28.32;31.41;95772.22;5002620;28;20456;-64
2023/10/12 08:26:47;;;;;;;10.63;6.00;;;27.90;48.00;;;28.32;32.12;95771.38;5001234;28;20500;-65
2023/10/12 08:29:57;;;;;;;17.67;7.17;;;27.90;48.10;;;28.37;31.14;95771.53;4998715;28;20553;-63
2023/10/12 08:32:13;;;;;;;15.57;7.03;;;27.90;48.00;;;28.32;31.36;95765.97;4999129;28;20477;-63
2023/10/12 08:35:10;;;;;;;8.30;6.20;;;27.80;46.80;;;28.21;31.72;95762.16;4999578;28;20477;-63
2023/10/12 08:37:36;;;;;;;11.40;6.07;;;27.80;47.50;;;28.23;31.32;95762.78;4999405;28;20473;-64
2023/10/12 08:42:58;;;;;;;16.43;6.20;;;27.80;47.80;;;28.38;31.60;95746.94;5001096;28;20524;-62
2023/10/12 08:45:26;;;;;;;24.20;7.83;;;27.80;48.00;;;28.56;31.82;95743.34;4999807;28;20812;-62
2023/10/12 08:47:54;;;;;;;11.30;6.43;;;28.00;47.70;;;28.70;31.15;95740.47;5003077;28;20891;-62
2023/10/12 08:53:09;;;;;;;15.03;5.67;;;28.30;47.40;;;29.07;30.64;95734.84;5001110;28;20481;-62
2023/10/12 08:55:37;;;;;;;13.23;5.10;;;28.40;47.20;;;29.22;30.29;95727.09;5000956;28;20465;-63
2023/10/12 08:58:15;;;;;;;10.60;5.77;;;28.60;47.20;;;29.31;31.03;95725.69;5000959;28;21031;-63
2023/10/12 09:00:44;;;;;;;9.33;5.63;;;28.70;46.30;;;29.39;30.96;95716.38;4999559;28;20486;-64
2023/10/12 09:03:28;;;;;;;9.67;5.17;;;28.80;46.30;;;29.45;30.94;95720.84;5002583;28;20522;-63
2023/10/12 09:05:58;;;;;;;12.33;5.83;;;28.90;46.20;;;29.55;30.54;95719.41;5000352;28;20478;-65
2023/10/12 09:08:46;;;;;;;13.60;5.17;;;28.90;45.70;;;29.57;30.80;95715.38;5001093;28;20503;-63
2023/10/12 09:11:17;;;;;;;13.60;5.30;;;29.00;46.10;;;29.71;30.30;95715.94;5002294;28;20490;-64
2023/10/12 09:13:46;;;;;;;11.03;5.53;;;29.10;45.90;;;29.71;30.58;95710.50;4998482;28;20478;-63
2023/10/12 09:16:15;;;;;;;10.60;5.70;;;29.10;45.60;;;29.54;29.95;95707.72;5002068;28;20469;-65
2023/10/12 09:18:47;;;;;;;13.93;6.27;;;29.10;45.40;;;29.28;29.81;95692.78;5000591;28;20484;-64
2023/10/12 09:21:23;;;;;;;20.60;7.10;;;28.90;45.30;;;29.07;29.83;95691.50;5001277;28;20470;-64
2023/10/12 09:23:52;;;;;;;28.90;7.90;;;28.70;44.30;;;28.95;30.90;95691.50;5000013;28;20452;-62
2023/10/12 09:26:30;;;;;;;13.70;6.00;;;28.50;45.80;;;28.95;30.40;95692.34;5001049;28;20505;-64
2023/10/12 09:29:23;;;;;;;12.20;6.20;;;28.50;46.00;;;28.99;30.19;95687.28;4998745;28;20456;-65
2023/10/12 09:32:15;;;;;;;11.03;5.87;;;28.50;45.80;;;28.95;30.02;95678.81;5001702;28;20841;-64
2023/10/12 09:34:44;;;;;;;18.03;6.07;;;28.50;45.60;;;28.97;30.93;95673.16;5001527;28;20859;-64
2023/10/12 09:37:18;;;;;;;12.47;6.17;;;28.50;45.90;;;29.05;30.54;95671.94;4999737;28;20472;-63
2023/10/12 09:39:46;;;;;;;13.93;7.70;;;28.50;46.00;;;28.95;30.34;95665.25;5003006;28;20527;-67
2023/10/12 09:42:23;;;;;;;14.73;6.40;;;28.50;45.90;;;28.91;30.84;95663.25;5000346;28;20569;-63
2023/10/12 09:45:01;;;;;;;15.00;6.97;;;28.50;45.90;;;28.85;30.38;95661.50;4999111;28;20532;-65
2023/10/12 09:47:43;;;;;;;13.27;6.20;;;28.40;45.90;;;28.73;30.39;95646.03;5000471;28;20464;-64
2023/10/12 09:50:14;;;;;;;9.40;6.30;;;28.30;46.00;;;28.70;30.58;95643.00;5002199;28;20466;-64
2023/10/12 09:52:47;;;;;;;22.83;7.47;;;28.20;46.20;;;28.75;31.19;95640.41;5002845;28;20477;-63
2023/10/12 09:55:24;;;;;;;20.57;6.70;;;28.30;46.30;;;28.80;30.48;95637.84;4999283;28;20478;-62
2023/10/12 09:57:53;;;;;;;22.47;6.93;;;28.30;46.70;;;28.83;30.43;95629.25;5000602;28;20445;-64
2023/10/12 10:00:29;;;;;;;12.67;6.93;;;28.30;46.20;;;28.84;30.96;95628.16;4999970;28;20454;-66
2023/10/12 10:03:02;;;;;;;11.13;4.63;;;28.30;46.00;;;28.84;30.48;95619.22;4999445;28;20540;-63
2023/10/12 10:05:51;;;;;;;9.93;5.43;;;28.30;46.00;;;28.85;30.41;95615.47;4998178;28;20536;-62
2023/10/12 10:08:19;;;;;;;13.23;7.00;;;28.40;46.10;;;28.89;30.69;95614.75;5001038;28;20842;-62
2023/10/12 10:10:48;;;;;;;15.57;6.40;;;28.40;46.20;;;28.86;31.03;95608.97;5003100;28;20493;-65
2023/10/12 10:13:41;;;;;;;20.07;7.03;;;28.30;46.10;;;28.73;30.45;95610.03;5000238;28;20834;-64
2023/10/12 10:16:10;;;;;;;12.37;5.93;;;28.30;46.00;;;28.66;30.70;95609.31;5000356;28;20732;-63
2023/10/12 10:18:46;;;;;;;10.33;6.87;;;28.20;46.00;;;28.57;30.67;95595.31;5000489;28;20461;-64
2023/10/12 10:21:18;;;;;;;12.60;7.10;;;28.10;46.20;;;28.52;31.27;95603.28;5001366;28;20916;-64
2023/10/12 10:23:49;;;;;;;23.27;6.40;;;28.00;46.40;;;28.37;30.84;95598.34;4998538;28;20962;-64
2023/10/12 10:26:20;;;;;;;13.63;6.50;;;27.90;46.40;;;28.14;31.06;95597.25;4999264;28;20484;-62
2023/10/12 10:28:54;;;;;;;34.73;7.57;;;27.80;46.60;;;27.94;31.60;95594.84;4998835;28;20804;-63
2023/10/12 10:31:33;;;;;;;16.43;5.87;;;27.60;46.40;;;27.83;31.60;95587.53;4999184;28;20549;-62
2023/10/12 10:34:04;;;;;;;46.00;6.80;;;27.40;47.00;;;27.88;32.17;95585.75;5001568;28;20519;-64
2023/10/12 10:36:35;;;;;;;25.57;6.60;;;27.40;47.50;;;28.01;31.86;95583.94;4999321;28;20490;-64
2023/10/12 10:39:24;;;;;;;13.47;7.00;;;27.40;47.60;;;28.08;31.89;95576.56;5001022;28;20484;-63
2023/10/12 10:41:56;;;;;;;11.27;7.07;;;27.50;47.40;;;28.02;31.56;95567.47;4999996;28;20466;-64
2023/10/12 10:44:26;;;;;;;21.23;6.97;;;27.50;46.90;;;27.88;31.55;95574.94;4997915;28;20506;-62
2023/10/12 10:46:57;;;;;;;21.80;8.07;;;27.50;47.30;;;27.72;32.31;95565.63;4999108;28;20481;-63
2023/10/12 10:49:30;;;;;;;12.43;6.10;;;27.30;47.30;;;27.63;32.30;95558.06;5001135;28;20448;-63
2023/10/12 10:52:13;;;;;;;23.67;6.80;;;27.20;47.60;;;27.65;32.55;95556.81;5000127;28;20505;-64
2023/10/12 10:54:51;;;;;;;13.93;6.17;;;27.20;47.90;;;27.63;32.39;95552.66;5004018;28;20568;-64
2023/10/12 10:57:24;;;;;;;15.43;6.33;;;27.10;47.90;;;27.54;32.43;95539.50;5005128;28;20464;-63
2023/10/12 10:59:52;;;;;;;15.50;6.63;;;27.10;47.90;;;27.49;32.15;95538.53;5001662;28;20986;-62
2023/10/12 11:02:22;;;;;;;16.90;5.80;;;27.00;48.10;;;27.50;32.84;95532.91;5005117;28;20508;-62
2023/10/12 11:04:55;;;;;;;23.77;6.07;;;27.00;48.60;;;27.62;33.13;95532.94;5002047;28;20572;-61
2023/10/12 11:07:22;;;;;;;18.33;6.37;;;27.10;48.70;;;27.73;32.62;95521.31;5001882;28;20544;-63
2023/10/12 11:10:19;;;;;;;15.33;5.50;;;27.10;48.40;;;27.82;32.41;95515.56;5004716;28;20449;-64
2023/10/12 11:12:45;;;;;;;25.17;7.30;;;27.20;49.00;;;27.89;32.15;95513.59;5002704;28;20998;-62
2023/10/12 11:15:14;;;;;;;13.87;6.60;;;27.30;48.00;;;27.89;32.71;95506.28;5005461;28;20863;-61